الصفحة الرئيسية
METAR-TAF:

METAR-TAF

مطار :

مطار جنيف الدولي

جنيف, سويسرا

دائرة عرض: 46-15N, خط طول: 006-08E, ارتفاع: 420 متر

مراقبة الطقس الحالي

تاريخ ووقت الإصدار 33 دقيقة قبل الساعة 22:20UTC
ريح 1 عقدةمن اتجاهات متغيرة
درجة الحرارة 17°درجة مئوية
الرطوبة 82%
ضغط 1019 hPa
الرؤية 10 كم أو أكثر
الغيوم لا تقل 1500 م ولا وجود لمزنة ركامية السحاب الأسود

METAR: LSGG 152220Z AUTO VRB01KT CAVOK 17/14 Q1019 NOSIG

زمن: 00:53 (22:53 UTC)

توقعات

تاريخ ووقت الإصدار 2ساعات و 28 دقيقة قبل الساعة 20:25UTC
التوقعات صالحة من15 الساعة 21 UTC إلى 17 الساعة 03 UTC
ريح 3 عقدةمن اتجاهات متغيرة
الرؤية 10 كم أو أكثر
الغيوم لا تقل 1500 م ولا وجود لمزنة ركامية السحاب الأسود
أصبح
من 16 الساعة 11 UTC إلى 16 الساعة 13 UTC
ريح 7 عقدة من الجنوب الغربي
الرؤية 10 كم أو أكثر
غيوم قليلة على ارتفاع 5000 قدم
أصبح
من 16 الساعة 16 UTC إلى 16 الساعة 18 UTC
ريح 3 عقدةمن اتجاهات متغيرة
الرؤية 10 كم أو أكثر
الغيوم لا تقل 1500 م ولا وجود لمزنة ركامية السحاب الأسود

TAF: LSGG 152025Z 1521/1703 VRB03KT CAVOK TX30/1615Z TN14/1605Z BECMG 1611/1613 23007KT 9999 FEW050 BECMG 1616/1618 VRB03KT CAVOK

أرصاد الطقس والتوقعات من أكثر من 4000 مطار (تقارير الطقس للمطار METAR والتنبؤ بالطقس بالمطارTAF).

المحطات المتاحة هي النقط الصفراء والحمراء على الخريطة.

حرك المؤشر فوق النقطة لمعرفة اسم المحطة.

ثم انقر لمعرفة أرصاد وتوقعات الطقس.

لتغيير الخارطة: اضغط على الأزرار الخضراء مع رمز الصليب الأسود للتكبير. على الزر الأخضر مع شرطة للتصغير، أو على الأسهم الخضراء للخرائط المجاورة.


METAR-TAF: